Fond du Lac, WI

9:31 AM CDT on May 24, 2018 (GMT -0500)
Fond du Lac County

Weather History for KFLD - December, 2012

Change the Weather History Date:

Thursday, December 20, 2012

  Actual Average Record
Temperature  
Mean Temperature 32 °F -  
Max Temperature 33 °F 28 °F 51 °F (1967)
Min Temperature 30 °F 14 °F -14 °F (1989)
Degree Days  
Heating Degree Days 34    
Moisture  
Dew Point 30 °F    
Average Humidity 91    
Maximum Humidity 100    
Minimum Humidity 87    
Precipitation  
Precipitation 0.10 in - - ()
Sea Level Pressure  
Sea Level Pressure 29.54 in    
Wind  
Wind Speed 16 mph (NNE)    
Max Wind Speed 29 mph    
Max Gust Speed 41 mph    
Visibility 1 miles    
Events Fog , Snow    
Averages and records for this station are not official NWS values.
T = Trace of Precipitation, MM = Missing Value Source: NWS Daily Summary

Daily Weather History Graph

Daily Weather History Graph

Search for Another Location

Airport or City:

Astronomy

Dec. 20, 2012 Rise Set
Actual Time 7:24 AM CST 4:19 PM CST
Civil Twilight 6:51 AM CST 4:52 PM CST
Nautical Twilight 6:15 AM CST 5:28 PM CST
Astronomical Twilight 5:40 AM CST 6:03 PM CST
Moon 11:46 AM CST (12/20) 12:00 AM CST (12/20)
Length of Visible Light 10h 00m
Length of Day
8h 54m
First Quarter, 55% of the Moon is Illuminated
Dec 20
First Quarter
Dec 28
Full
Jan 4
Last Quarter
Jan 11
New
Jan 18
First Quarter

Hourly Weather History & Observations

Time (CST) Temp. Windchill Dew Point Humidity Pressure Visibility Wind Dir Wind Speed Gust Speed Precip Events Conditions
12:10 AM 30.2 °F 20.2 °F 28.4 °F 93% 29.90 in 1.5 mi NNE 12.7 mph - 0.00 in Snow Light Snow
12:16 AM 30.2 °F 20.8 °F 28.4 °F 93% 29.89 in 2.0 mi NNE 11.5 mph - 0.00 in Snow Light Snow
12:31 AM 30.2 °F 22.6 °F 28.4 °F 93% 29.90 in 1.8 mi ENE 8.1 mph - 0.00 in Snow Light Snow
12:39 AM 30.2 °F 21.9 °F 28.4 °F 93% 29.89 in 1.0 mi ENE 9.2 mph - 0.00 in Snow Light Snow
12:53 AM 30.0 °F 23.2 °F 28.9 °F 96% 29.91 in 0.8 mi ENE 6.9 mph - 0.00 in Snow Light Snow
1:09 AM 30.2 °F 20.8 °F 28.4 °F 93% 29.87 in 1.0 mi ENE 11.5 mph - 0.00 in Snow Light Snow
1:22 AM 30.2 °F 20.8 °F 28.4 °F 93% 29.85 in 1.2 mi ENE 11.5 mph - 0.00 in Snow Light Snow
1:39 AM 30.2 °F 21.9 °F 28.4 °F 93% 29.84 in 0.8 mi ENE 9.2 mph - 0.00 in Snow Light Snow
1:48 AM 30.2 °F 21.9 °F 28.4 °F 93% 29.84 in 0.5 mi ENE 9.2 mph - 0.00 in Fog , Snow Snow
1:53 AM 30.9 °F 22.2 °F 28.9 °F 92% 29.86 in 0.5 mi ENE 10.4 mph - 0.00 in Fog , Snow Snow
2:01 AM 30.2 °F 21.9 °F 30.2 °F 100% 29.83 in 0.5 mi NE 9.2 mph - 0.00 in Fog , Snow Snow
2:19 AM 30.2 °F 21.9 °F 30.2 °F 100% 29.83 in 0.8 mi NE 9.2 mph - 0.00 in Snow Light Snow
2:53 AM 32.0 °F 23.0 °F 30.9 °F 96% 29.83 in 0.5 mi ENE 11.5 mph - 0.00 in Fog , Snow Snow
3:24 AM 32.0 °F 23.6 °F 30.2 °F 93% 29.77 in 0.8 mi NE 10.4 mph - 0.00 in Snow Light Snow
3:53 AM 33.1 °F 23.4 °F 30.9 °F 92% 29.76 in 1.0 mi ENE 13.8 mph - 0.00 in Snow Light Snow
4:19 AM 33.8 °F 23.9 °F 30.2 °F 87% 29.70 in 1.5 mi ENE 15.0 mph - 0.00 in Snow Light Snow
4:34 AM 33.8 °F 23.5 °F 30.2 °F 87% 29.68 in 2.0 mi ENE 16.1 mph 21.9 mph 0.00 in Snow Light Snow
4:53 AM 33.1 °F 22.2 °F 30.9 °F 92% 29.68 in 2.0 mi ENE 17.3 mph - 0.00 in Snow Light Snow
5:34 AM 33.8 °F 23.5 °F 30.2 °F 87% 29.61 in 3.0 mi NE 16.1 mph - 0.00 in Snow Light Snow
5:38 AM 33.8 °F 22.8 °F 30.2 °F 87% 29.61 in 2.5 mi NE 18.4 mph - 0.00 in Snow Light Snow
5:53 AM 33.1 °F 23.0 °F 30.9 °F 92% 29.65 in 2.0 mi NE 15.0 mph 25.3 mph 0.00 in Snow Light Snow
6:00 AM 33.8 °F 23.5 °F 30.2 °F 87% 29.61 in 1.8 mi NE 16.1 mph - 0.00 in Snow Light Snow
6:08 AM 33.8 °F 23.5 °F 30.2 °F 87% 29.60 in 1.2 mi NE 16.1 mph 23.0 mph 0.00 in Snow Light Snow
6:37 AM 33.8 °F 23.9 °F 30.2 °F 87% 29.58 in 1.2 mi NE 15.0 mph - 0.00 in Snow Light Snow
6:53 AM 33.1 °F 22.2 °F 30.9 °F 92% 29.59 in 1.2 mi NE 17.3 mph - 0.00 in Snow Light Snow
7:53 AM 33.1 °F 22.6 °F 32.0 °F 96% 29.52 in 1.0 mi NE 16.1 mph - 0.00 in Snow Light Snow
8:53 AM 33.1 °F 21.9 °F 32.0 °F 96% 29.51 in 0.8 mi NNE 18.4 mph - 0.00 in Snow Light Snow
9:53 AM 33.1 °F 22.2 °F 32.0 °F 96% 29.48 in 0.5 mi NNE 17.3 mph 25.3 mph 0.01 in Fog , Snow Snow
10:33 AM 33.8 °F 22.2 °F 32.0 °F 93% 29.42 in 1.0 mi NNE 20.7 mph - 0.00 in Snow Light Snow
10:53 AM 33.1 °F 21.5 °F 32.0 °F 96% 29.42 in 1.0 mi NNE 19.6 mph - 0.00 in Snow Light Snow
11:20 AM 33.8 °F 21.9 °F 30.2 °F 87% 29.37 in 0.8 mi NNE 21.9 mph - 0.00 in Snow Light Snow
11:53 AM 32.0 °F 19.2 °F 30.9 °F 96% 29.37 in 0.2 mi NNE 23.0 mph 29.9 mph 0.01 in Fog , Snow Heavy Snow
12:53 PM 32.0 °F 19.2 °F 32.0 °F 100% 29.32 in 0.2 mi NNE 23.0 mph 28.8 mph 0.02 in Fog , Snow Heavy Snow
1:53 PM 33.1 °F 20.1 °F 30.9 °F 92% 29.31 in 0.8 mi NNE 25.3 mph 33.4 mph 0.01 in Snow Light Snow
2:53 PM 33.1 °F 20.6 °F 32.0 °F 96% 29.29 in 0.5 mi North 23.0 mph 32.2 mph 0.01 in Fog , Snow Snow
3:53 PM 33.1 °F 20.3 °F 30.9 °F 92% 29.29 in 0.2 mi North 24.2 mph 34.5 mph 0.01 in Fog , Snow Snow
4:27 PM 33.8 °F 21.6 °F 30.2 °F 87% 29.27 in 1.0 mi North 23.0 mph 38.0 mph 0.01 in Snow Light Snow
4:45 PM 33.8 °F 20.3 °F 30.2 °F 87% 29.28 in 1.8 mi North 28.8 mph 36.8 mph 0.01 in Snow Light Snow
4:53 PM 33.1 °F 20.3 °F 30.9 °F 92% 29.31 in 2.0 mi North 24.2 mph 36.8 mph 0.01 in Snow Light Snow
5:15 PM 33.8 °F 20.8 °F 30.2 °F 87% 29.30 in 1.8 mi North 26.5 mph 41.4 mph 0.01 in Snow Light Snow
5:23 PM 32.0 °F 18.9 °F 30.2 °F 93% 29.30 in 1.5 mi North 24.2 mph 41.4 mph 0.01 in Snow Light Snow
5:53 PM 32.0 °F 18.6 °F 30.9 °F 96% 29.34 in 1.5 mi North 25.3 mph 34.5 mph 0.01 in Snow Light Snow
6:26 PM 33.8 °F 21.0 °F 30.2 °F 87% 29.33 in 1.5 mi North 25.3 mph 35.7 mph 0.00 in Snow Light Snow
6:39 PM 33.8 °F 20.8 °F 30.2 °F 87% 29.34 in 1.2 mi North 26.5 mph 32.2 mph 0.00 in Snow Light Snow
6:53 PM 33.1 °F 20.9 °F 30.9 °F 92% 29.37 in 1.2 mi North 21.9 mph 32.2 mph 0.00 in Snow Light Snow
7:34 PM 33.8 °F 21.9 °F 30.2 °F 87% 29.36 in 2.0 mi NNW 21.9 mph 34.5 mph 0.00 in Snow Light Snow
7:53 PM 33.1 °F 20.1 °F 30.9 °F 92% 29.39 in 2.0 mi NNW 25.3 mph 32.2 mph 0.00 in Snow Light Snow
7:58 PM 33.8 °F 21.3 °F 30.2 °F 87% 29.37 in 1.5 mi North 24.2 mph 32.2 mph 0.00 in Snow Light Snow
8:53 PM 33.1 °F 20.1 °F 30.9 °F 92% 29.42 in 1.5 mi North 25.3 mph 34.5 mph 0.01 in Snow Light Snow
9:10 PM 33.8 °F 22.2 °F 30.2 °F 87% 29.40 in 1.5 mi NNW 20.7 mph 32.2 mph 0.00 in Snow Light Snow
9:23 PM 33.8 °F 21.0 °F 30.2 °F 87% 29.41 in 1.8 mi NNW 25.3 mph 36.8 mph 0.00 in Snow Light Snow
9:29 PM 33.8 °F 21.3 °F 30.2 °F 87% 29.41 in 1.8 mi NNW 24.2 mph 36.8 mph 0.00 in Snow Light Snow
9:38 PM 33.8 °F 21.0 °F 30.2 °F 87% 29.42 in 1.8 mi NNW 25.3 mph 35.7 mph 0.00 in Snow Light Snow
9:44 PM 33.8 °F 21.3 °F 30.2 °F 87% 29.43 in 2.0 mi NNW 24.2 mph 35.7 mph 0.00 in Snow Light Snow
9:53 PM 33.1 °F 20.1 °F 30.0 °F 89% 29.46 in 2.5 mi NNW 25.3 mph 34.5 mph 0.00 in Snow Light Snow
10:09 PM 33.8 °F 20.5 °F 30.2 °F 87% 29.44 in 1.8 mi NNW 27.6 mph 39.1 mph 0.00 in Snow Light Snow
10:17 PM 33.8 °F 21.0 °F 30.2 °F 87% 29.45 in 1.5 mi NNW 25.3 mph 35.7 mph 0.00 in Snow Light Snow
10:53 PM 32.0 °F 18.4 °F 30.0 °F 92% 29.50 in 1.0 mi NNW 26.5 mph 36.8 mph 0.00 in Snow Light Snow
11:05 PM 32.0 °F 18.4 °F 30.2 °F 93% 29.48 in 1.0 mi NNW 26.5 mph 36.8 mph 0.00 in Snow Light Snow
11:48 PM 33.8 °F 21.0 °F 30.2 °F 87% 29.49 in 1.2 mi NNW 25.3 mph 36.8 mph 0.00 in Snow Light Snow
11:53 PM 32.0 °F 18.4 °F 30.0 °F 92% 29.53 in 1.2 mi NNW 26.5 mph 36.8 mph 0.00 in Snow Light Snow